Time;durP1;ratioP1;P1;durP2;ratioP2;P2;SDS_P1;SDS_P2;PMS_P1;PMS_P2;Temp;Humidity;BMP_temperature;BMP_pressure;BME280_temperature;BME280_humidity;BME280_pressure;Samples;Min_cycle;Max_cycle;Signal;HPM_P1;HPM_P2
2021/06/30 00:02:07;;;;;;;4.38;1.67;;;20.40;78.40;;;;;;5088236;28;27477;-59
2021/06/30 00:04:52;;;;;;;1.70;1.42;;;20.30;77.50;;;;;;5106656;28;27917;-59
2021/06/30 00:07:36;;;;;;;1.30;0.90;;;20.30;77.60;;;;;;5106422;28;27423;-59
2021/06/30 00:10:21;;;;;;;3.55;1.52;;;20.40;77.90;;;;;;5103195;28;27527;-59
2021/06/30 00:13:05;;;;;;;8.15;2.83;;;20.30;77.80;;;;;;5088382;28;26968;-60
2021/06/30 00:15:51;;;;;;;10.60;2.97;;;20.30;77.00;;;;;;5107040;28;27493;-59
2021/06/30 00:18:35;;;;;;;7.75;4.25;;;20.30;78.30;;;;;;5106761;28;27438;-59
2021/06/30 00:21:20;;;;;;;8.98;4.25;;;20.30;77.70;;;;;;5106829;28;27331;-59
2021/06/30 00:24:05;;;;;;;9.48;4.47;;;20.30;77.30;;;;;;5107031;28;27380;-59
2021/06/30 00:26:50;;;;;;;6.35;3.00;;;20.30;77.30;;;;;;5106057;28;27423;-59
2021/06/30 00:29:34;;;;;;;3.42;2.40;;;20.30;78.80;;;;;;5106807;28;27390;-59
2021/06/30 00:32:19;;;;;;;7.78;1.98;;;20.30;77.90;;;;;;5106432;28;27348;-59
2021/06/30 00:35:04;;;;;;;7.03;2.25;;;20.30;78.00;;;;;;5106842;28;26928;-60
2021/06/30 00:37:49;;;;;;;4.93;1.50;;;20.30;78.80;;;;;;5087976;28;27391;-60
2021/06/30 00:40:34;;;;;;;3.22;1.42;;;20.30;79.80;;;;;;5106090;28;27410;-59
2021/06/30 00:43:19;;;;;;;6.30;2.03;;;20.30;77.60;;;;;;5106473;28;27343;-59
2021/06/30 00:46:03;;;;;;;6.72;1.90;;;20.30;78.20;;;;;;5106411;28;27389;-60
2021/06/30 00:48:48;;;;;;;3.80;1.88;;;20.20;78.40;;;;;;5106466;28;27860;-60
2021/06/30 00:51:33;;;;;;;5.57;2.20;;;20.30;77.40;;;;;;5105706;28;27406;-59
2021/06/30 00:54:17;;;;;;;2.00;1.38;;;20.20;77.00;;;;;;5106293;28;27428;-60
2021/06/30 00:57:01;;;;;;;8.68;1.95;;;20.20;77.10;;;;;;5102960;28;27328;-60
2021/06/30 00:59:46;;;;;;;7.85;1.45;;;20.20;76.90;;;;;;5105578;28;27971;-60
2021/06/30 01:02:31;;;;;;;1.88;1.25;;;20.20;76.20;;;;;;5101737;27;27478;-60
2021/06/30 01:05:16;;;;;;;3.83;1.30;;;20.20;76.70;;;;;;5106418;28;27406;-60
2021/06/30 01:08:03;;;;;;;7.53;1.90;;;20.20;75.80;;;;;;5106270;28;27385;-61
2021/06/30 01:10:48;;;;;;;3.05;0.88;;;20.10;74.50;;;;;;5106242;28;27970;-61
2021/06/30 01:13:32;;;;;;;1.02;0.47;;;20.10;74.70;;;;;;5073306;28;27317;-62
2021/06/30 01:16:17;;;;;;;3.65;0.73;;;20.10;74.40;;;;;;5105918;28;27408;-63
2021/06/30 01:19:02;;;;;;;1.02;0.70;;;20.10;74.40;;;;;;5106009;28;27319;-62
2021/06/30 01:21:48;;;;;;;2.20;1.10;;;20.10;74.10;;;;;;5087190;28;27403;-61
2021/06/30 01:24:36;;;;;;;3.40;0.90;;;20.10;74.10;;;;;;5087381;28;27360;-62
2021/06/30 01:27:21;;;;;;;0.82;0.70;;;20.10;74.40;;;;;;5105232;28;27447;-61
2021/06/30 01:30:06;;;;;;;2.92;0.70;;;20.10;74.80;;;;;;5105649;28;27416;-63
2021/06/30 01:32:51;;;;;;;1.05;0.50;;;20.10;74.80;;;;;;5087097;28;27491;-62
2021/06/30 01:35:35;;;;;;;0.73;0.60;;;20.10;75.00;;;;;;5105686;28;27485;-63
2021/06/30 01:38:21;;;;;;;1.70;0.60;;;20.10;74.80;;;;;;5105807;28;27344;-65
2021/06/30 01:41:07;;;;;;;5.28;0.68;;;20.00;75.40;;;;;;5104380;28;27559;-62
2021/06/30 01:43:51;;;;;;;4.45;1.20;;;20.00;74.80;;;;;;5104575;28;27485;-63
2021/06/30 01:46:36;;;;;;;1.13;0.57;;;20.00;74.60;;;;;;5104502;28;27515;-60
2021/06/30 01:49:21;;;;;;;2.88;0.63;;;20.00;75.40;;;;;;5105379;28;27428;-59
2021/06/30 01:52:06;;;;;;;1.17;0.60;;;20.00;75.00;;;;;;5105470;28;27510;-59
2021/06/30 01:54:51;;;;;;;1.38;0.57;;;20.00;74.50;;;;;;5104712;28;27597;-59
2021/06/30 01:57:40;;;;;;;3.90;0.70;;;20.00;75.70;;;;;;5101012;28;27403;-59
2021/06/30 02:00:25;;;;;;;3.90;0.73;;;20.00;75.70;;;;;;5104917;28;27455;-59
2021/06/30 02:03:09;;;;;;;4.40;1.50;;;20.00;74.70;;;;;;5102148;28;27419;-59
2021/06/30 02:05:54;;;;;;;1.17;0.52;;;19.90;75.50;;;;;;5105315;28;27405;-59
2021/06/30 02:08:38;;;;;;;1.13;0.47;;;19.90;76.40;;;;;;5104940;28;27399;-59
2021/06/30 02:11:23;;;;;;;2.85;0.60;;;19.90;75.80;;;;;;5104232;28;27483;-59
2021/06/30 02:14:08;;;;;;;0.38;0.30;;;19.90;76.10;;;;;;5100621;27;27404;-60
2021/06/30 02:16:53;;;;;;;1.95;0.70;;;19.80;76.00;;;;;;5105059;28;27844;-59
2021/06/30 02:19:38;;;;;;;1.17;0.35;;;19.90;76.10;;;;;;5104033;28;27560;-59
2021/06/30 02:22:22;;;;;;;1.02;0.43;;;19.80;76.10;;;;;;5104676;28;27617;-59
2021/06/30 02:25:08;;;;;;;1.00;0.60;;;19.80;76.50;;;;;;5104740;28;27442;-59
2021/06/30 02:27:53;;;;;;;4.75;0.50;;;19.80;76.60;;;;;;5086467;28;27430;-60
2021/06/30 02:30:38;;;;;;;3.20;0.65;;;19.80;76.20;;;;;;5104780;28;27472;-58
2021/06/30 02:33:23;;;;;;;0.68;0.40;;;19.70;75.90;;;;;;5104867;28;27427;-59
2021/06/30 02:36:07;;;;;;;0.20;0.20;;;19.70;76.50;;;;;;5100699;28;27484;-59
2021/06/30 02:38:51;;;;;;;5.22;0.40;;;19.70;76.70;;;;;;5100277;28;27419;-59
2021/06/30 02:41:36;;;;;;;0.63;0.32;;;19.70;77.00;;;;;;5104441;28;27516;-59
2021/06/30 02:44:20;;;;;;;0.95;0.50;;;19.70;77.60;;;;;;5104521;28;27400;-58
2021/06/30 02:47:05;;;;;;;2.67;0.35;;;19.70;76.90;;;;;;5104484;28;27382;-59
2021/06/30 02:49:49;;;;;;;2.88;1.33;;;19.60;77.00;;;;;;5104221;28;27651;-59
2021/06/30 02:52:34;;;;;;;3.65;0.50;;;19.60;76.70;;;;;;5104311;28;27421;-59
2021/06/30 02:55:19;;;;;;;0.22;0.20;;;19.60;76.90;;;;;;5104346;28;27351;-59
2021/06/30 02:58:03;;;;;;;0.43;0.40;;;19.60;77.30;;;;;;5104234;28;27335;-59
2021/06/30 03:00:48;;;;;;;0.88;0.35;;;19.60;77.20;;;;;;5103895;28;27332;-58
2021/06/30 03:03:33;;;;;;;3.13;0.57;;;19.60;77.80;;;;;;5102672;28;27332;-59
2021/06/30 03:06:17;;;;;;;2.20;0.35;;;19.60;77.10;;;;;;5071433;28;27432;-59
2021/06/30 03:09:02;;;;;;;0.57;0.30;;;19.60;76.90;;;;;;5104364;28;27352;-59
2021/06/30 03:11:47;;;;;;;0.55;0.28;;;19.50;77.30;;;;;;5104034;28;27482;-59
2021/06/30 03:14:31;;;;;;;1.55;0.40;;;19.50;77.50;;;;;;5099950;28;27555;-59
2021/06/30 03:17:15;;;;;;;2.75;0.43;;;19.50;77.40;;;;;;5103660;28;27434;-58
2021/06/30 03:19:59;;;;;;;1.70;0.30;;;19.50;77.00;;;;;;5104114;28;27459;-60
2021/06/30 03:22:44;;;;;;;1.55;0.40;;;19.50;77.80;;;;;;5103823;28;27421;-59
2021/06/30 03:25:28;;;;;;;1.67;0.22;;;19.50;77.40;;;;;;5103612;27;27423;-59
2021/06/30 03:28:14;;;;;;;2.92;0.40;;;19.50;77.40;;;;;;5104560;28;27391;-59
2021/06/30 03:30:58;;;;;;;1.38;0.20;;;19.50;75.80;;;;;;5104182;28;27557;-59
2021/06/30 03:33:43;;;;;;;2.10;0.30;;;19.50;76.80;;;;;;5104372;28;27946;-59
2021/06/30 03:36:28;;;;;;;0.45;0.28;;;19.50;77.00;;;;;;5104616;28;27449;-59
2021/06/30 03:39:13;;;;;;;2.83;0.30;;;19.50;77.00;;;;;;5104720;28;27469;-59
2021/06/30 03:41:58;;;;;;;3.45;0.60;;;19.50;77.40;;;;;;5104354;28;26841;-59
2021/06/30 03:44:42;;;;;;;1.65;0.60;;;19.40;75.90;;;;;;5104182;28;27459;-59
2021/06/30 03:47:27;;;;;;;1.98;0.57;;;19.50;77.40;;;;;;5104502;28;27624;-59
2021/06/30 03:50:11;;;;;;;2.50;0.55;;;19.40;76.80;;;;;;5104046;28;27540;-59
2021/06/30 03:52:56;;;;;;;1.15;0.50;;;19.40;77.60;;;;;;5104230;28;27480;-59
2021/06/30 03:55:40;;;;;;;1.25;0.40;;;19.40;77.30;;;;;;5104118;28;27485;-59
2021/06/30 03:58:25;;;;;;;1.17;0.45;;;19.40;77.20;;;;;;5104135;28;27596;-59
2021/06/30 04:01:10;;;;;;;3.28;0.68;;;19.40;77.60;;;;;;5104171;28;27387;-58
2021/06/30 04:03:55;;;;;;;0.68;0.40;;;19.30;77.30;;;;;;5103689;28;27366;-59
2021/06/30 04:06:43;;;;;;;0.50;0.40;;;19.30;76.40;;;;;;5102442;28;27823;-59
2021/06/30 04:09:28;;;;;;;2.50;0.43;;;19.30;77.00;;;;;;5103853;28;27461;-59
2021/06/30 04:12:12;;;;;;;0.90;0.40;;;19.40;77.70;;;;;;5103888;28;27469;-58
2021/06/30 04:14:57;;;;;;;3.60;0.40;;;19.30;77.70;;;;;;5104263;28;27395;-59
2021/06/30 04:17:41;;;;;;;1.45;0.40;;;19.30;78.00;;;;;;5104194;28;27461;-59
2021/06/30 04:20:26;;;;;;;0.52;0.40;;;19.30;78.70;;;;;;5103826;28;27423;-59
2021/06/30 04:23:11;;;;;;;4.03;0.40;;;19.30;78.10;;;;;;5104201;28;27433;-59
2021/06/30 04:25:55;;;;;;;1.55;0.50;;;19.30;78.90;;;;;;5100555;28;27382;-59
2021/06/30 04:28:40;;;;;;;3.72;0.40;;;19.30;78.30;;;;;;5104015;28;27383;-59
2021/06/30 04:31:24;;;;;;;1.63;0.22;;;19.30;79.50;;;;;;5103745;28;27406;-59
2021/06/30 04:34:09;;;;;;;1.95;0.50;;;19.30;78.10;;;;;;5103809;28;27395;-59
2021/06/30 04:36:53;;;;;;;0.55;0.35;;;19.30;79.10;;;;;;5104740;27;27383;-59
2021/06/30 04:39:38;;;;;;;1.02;0.30;;;19.30;77.70;;;;;;5107023;28;27434;-59
2021/06/30 04:42:22;;;;;;;2.25;0.40;;;19.30;78.30;;;;;;5107084;28;27326;-59
2021/06/30 04:45:07;;;;;;;0.63;0.50;;;19.30;79.20;;;;;;5107366;28;27322;-59
2021/06/30 04:47:52;;;;;;;0.98;0.60;;;19.30;78.00;;;;;;5107271;28;27333;-59
2021/06/30 04:50:36;;;;;;;0.70;0.40;;;19.30;77.70;;;;;;5102836;28;27827;-59
2021/06/30 04:53:21;;;;;;;0.28;0.28;;;19.30;77.60;;;;;;5106906;28;27331;-59
2021/06/30 04:56:06;;;;;;;5.20;0.47;;;19.30;77.70;;;;;;5107255;28;27340;-59
2021/06/30 04:58:50;;;;;;;5.95;0.45;;;19.20;76.60;;;;;;5107245;28;27452;-59
2021/06/30 05:01:35;;;;;;;1.63;0.88;;;19.20;80.00;;;;;;5106773;28;27840;-58
2021/06/30 05:04:21;;;;;;;3.28;0.50;;;19.20;77.90;;;;;;5105138;28;27603;-58
2021/06/30 05:07:06;;;;;;;2.28;0.50;;;19.20;80.20;;;;;;5105712;27;27307;-58
2021/06/30 05:09:51;;;;;;;1.27;0.30;;;19.20;78.60;;;;;;5106769;28;27309;-58
2021/06/30 05:12:35;;;;;;;0.75;0.43;;;19.20;75.00;;;;;;5106853;28;27961;-59
2021/06/30 05:15:22;;;;;;;1.55;0.32;;;19.20;79.80;;;;;;5106521;28;27403;-58
2021/06/30 05:18:07;;;;;;;1.85;0.43;;;19.10;78.50;;;;;;5106880;28;27390;-58
2021/06/30 05:20:51;;;;;;;3.13;0.43;;;19.10;79.00;;;;;;5106803;28;27319;-58
2021/06/30 05:23:37;;;;;;;0.55;0.20;;;19.10;79.90;;;;;;5106701;28;27429;-58
2021/06/30 05:26:21;;;;;;;1.27;0.38;;;19.20;79.30;;;;;;5106678;28;27379;-58
2021/06/30 05:29:06;;;;;;;2.05;0.40;;;19.20;80.30;;;;;;5102648;28;27438;-58
2021/06/30 05:31:50;;;;;;;1.92;0.45;;;19.20;81.10;;;;;;5106572;28;27476;-58
2021/06/30 05:34:35;;;;;;;1.02;0.30;;;19.20;79.50;;;;;;5105914;28;27466;-58
2021/06/30 05:37:19;;;;;;;0.70;0.40;;;19.10;78.40;;;;;;5105790;28;27523;-58
2021/06/30 05:40:04;;;;;;;0.95;0.50;;;19.10;79.10;;;;;;5106239;28;27389;-59
2021/06/30 05:42:49;;;;;;;1.55;0.40;;;19.10;79.20;;;;;;5102868;28;27449;-58
2021/06/30 05:45:33;;;;;;;0.77;0.30;;;19.10;79.50;;;;;;5102303;28;27407;-58
2021/06/30 05:48:17;;;;;;;0.40;0.40;;;19.10;80.10;;;;;;5105945;28;27404;-58
2021/06/30 05:51:02;;;;;;;1.35;0.60;;;19.10;80.10;;;;;;5105293;28;27411;-58
2021/06/30 05:53:47;;;;;;;2.35;0.45;;;19.20;80.30;;;;;;5106269;28;27332;-58
2021/06/30 05:56:32;;;;;;;2.47;0.40;;;19.40;79.70;;;;;;5106210;28;27904;-58
2021/06/30 05:59:16;;;;;;;2.20;0.65;;;19.50;76.20;;;;;;5105910;28;27445;-58
2021/06/30 06:02:01;;;;;;;2.90;0.43;;;19.60;77.00;;;;;;5105468;28;27493;-58
2021/06/30 06:04:46;;;;;;;0.98;0.68;;;19.60;75.70;;;;;;5105975;28;27564;-58
2021/06/30 06:07:30;;;;;;;4.20;1.40;;;19.70;75.00;;;;;;5101704;28;27315;-58
2021/06/30 06:10:15;;;;;;;4.13;0.47;;;19.70;75.40;;;;;;5105778;28;27398;-58
2021/06/30 06:13:00;;;;;;;0.68;0.40;;;19.80;75.20;;;;;;5105713;28;27327;-58
2021/06/30 06:15:45;;;;;;;2.70;0.45;;;19.90;74.70;;;;;;5102755;28;27369;-58
2021/06/30 06:18:29;;;;;;;1.30;0.50;;;19.90;73.90;;;;;;5105564;28;27359;-58
2021/06/30 06:21:14;;;;;;;1.00;0.40;;;20.00;74.80;;;;;;5105777;28;27531;-58
2021/06/30 06:23:59;;;;;;;0.55;0.40;;;20.00;74.80;;;;;;5105812;28;27312;-58
2021/06/30 06:26:43;;;;;;;0.40;0.30;;;20.10;75.50;;;;;;5105503;28;27378;-58
2021/06/30 06:29:28;;;;;;;2.05;0.30;;;20.30;75.40;;;;;;5105115;28;27390;-58
2021/06/30 06:32:12;;;;;;;0.30;0.20;;;20.40;75.60;;;;;;5105364;28;27526;-58
2021/06/30 06:34:57;;;;;;;1.05;0.30;;;20.60;75.60;;;;;;5104643;28;27409;-58
2021/06/30 06:37:41;;;;;;;0.95;0.50;;;20.80;75.00;;;;;;5105302;28;27390;-59
2021/06/30 06:40:26;;;;;;;1.52;0.47;;;21.00;74.40;;;;;;5101433;28;27457;-58
2021/06/30 06:43:10;;;;;;;0.40;0.20;;;21.20;74.00;;;;;;5105153;28;27473;-58
2021/06/30 06:45:56;;;;;;;0.65;0.25;;;21.30;74.20;;;;;;5105220;28;27435;-59
2021/06/30 06:48:42;;;;;;;0.47;0.47;;;21.40;74.20;;;;;;5105106;28;27407;-59
2021/06/30 06:51:26;;;;;;;2.17;0.30;;;21.40;74.30;;;;;;5104671;28;28089;-58
2021/06/30 06:54:11;;;;;;;1.23;0.32;;;21.50;74.70;;;;;;5104998;28;27477;-58
2021/06/30 06:56:55;;;;;;;0.20;0.20;;;21.50;74.80;;;;;;5101799;28;27470;-58
2021/06/30 06:59:40;;;;;;;0.32;0.32;;;21.50;74.80;;;;;;5103940;27;27470;-58
2021/06/30 07:02:25;;;;;;;0.55;0.20;;;21.60;74.20;;;;;;5104491;28;27527;-59
2021/06/30 07:05:10;;;;;;;0.93;0.35;;;21.60;74.00;;;;;;5101560;28;27483;-58
2021/06/30 07:07:55;;;;;;;3.83;0.43;;;21.60;73.70;;;;;;5104437;28;27466;-58
2021/06/30 07:10:39;;;;;;;0.80;0.52;;;21.60;73.10;;;;;;5104521;28;27408;-58
2021/06/30 07:13:24;;;;;;;0.20;0.20;;;21.60;73.00;;;;;;5104718;28;27467;-58
2021/06/30 07:16:08;;;;;;;0.93;0.50;;;21.60;73.40;;;;;;5104669;28;27437;-59
2021/06/30 07:18:53;;;;;;;0.55;0.28;;;21.60;73.00;;;;;;5104701;28;27406;-58
2021/06/30 07:21:37;;;;;;;0.50;0.40;;;21.60;72.70;;;;;;5104603;28;27461;-58
2021/06/30 07:24:22;;;;;;;0.30;0.30;;;21.60;72.80;;;;;;5103995;28;27915;-60
2021/06/30 07:27:07;;;;;;;0.45;0.13;;;21.70;72.60;;;;;;5104518;28;27442;-58
2021/06/30 07:29:52;;;;;;;1.73;0.30;;;21.80;72.00;;;;;;5104754;28;27472;-59
2021/06/30 07:32:37;;;;;;;0.77;0.30;;;21.90;71.90;;;;;;5104764;28;27470;-58
2021/06/30 07:35:22;;;;;;;0.93;0.13;;;22.00;71.50;;;;;;5100372;28;27950;-58
2021/06/30 07:38:07;;;;;;;0.20;0.20;;;22.10;71.80;;;;;;5104316;28;27467;-60
2021/06/30 07:40:51;;;;;;;0.68;0.57;;;22.20;71.40;;;;;;5104375;28;27510;-58
2021/06/30 07:43:36;;;;;;;0.60;0.50;;;22.30;71.30;;;;;;5104801;28;27639;-58
2021/06/30 07:46:20;;;;;;;3.05;0.30;;;22.30;70.80;;;;;;5104569;28;27389;-59
2021/06/30 07:49:06;;;;;;;0.10;0.10;;;22.40;70.80;;;;;;5103488;28;27407;-58
2021/06/30 07:51:53;;;;;;;0.20;0.20;;;22.50;70.60;;;;;;5104115;28;27328;-58
2021/06/30 07:54:37;;;;;;;1.83;0.30;;;22.50;70.20;;;;;;5104485;28;27438;-58
2021/06/30 07:57:22;;;;;;;0.35;0.20;;;22.50;69.50;;;;;;5104163;28;27446;-58
2021/06/30 08:00:07;;;;;;;0.25;0.20;;;22.40;69.90;;;;;;5104121;28;27483;-59
2021/06/30 08:02:56;;;;;;;1.02;0.40;;;22.30;70.10;;;;;;5103776;28;27323;-58
2021/06/30 08:05:41;;;;;;;0.30;0.20;;;22.30;70.40;;;;;;5103696;28;27328;-58
2021/06/30 08:08:26;;;;;;;0.43;0.32;;;22.30;70.10;;;;;;5104030;28;27877;-58
2021/06/30 08:11:11;;;;;;;2.75;0.30;;;22.60;69.80;;;;;;5099673;28;27531;-58
2021/06/30 08:13:56;;;;;;;0.50;0.30;;;22.70;69.00;;;;;;5107655;28;27414;-58
2021/06/30 08:16:41;;;;;;;0.40;0.17;;;22.90;68.20;;;;;;5106496;28;27473;-58
2021/06/30 08:19:25;;;;;;;0.80;0.20;;;23.00;67.80;;;;;;5107722;28;27529;-57
2021/06/30 08:22:10;;;;;;;1.10;0.30;;;23.20;66.60;;;;;;5107396;28;27399;-57
2021/06/30 08:24:55;;;;;;;2.95;0.50;;;23.50;65.70;;;;;;5107479;28;27469;-58
2021/06/30 08:27:39;;;;;;;2.85;0.38;;;23.70;66.10;;;;;;5103320;28;27485;-58
2021/06/30 08:30:24;;;;;;;2.03;0.30;;;23.70;64.40;;;;;;5107064;28;27384;-58
2021/06/30 08:33:09;;;;;;;0.28;0.20;;;23.70;65.00;;;;;;5107237;28;27477;-57
2021/06/30 08:35:55;;;;;;;0.25;0.25;;;23.70;65.50;;;;;;5107325;28;27419;-58
2021/06/30 08:38:40;;;;;;;0.20;0.20;;;23.90;65.10;;;;;;5107488;28;27403;-58
2021/06/30 08:41:25;;;;;;;2.28;0.20;;;23.80;64.00;;;;;;5107106;28;27842;-58
2021/06/30 08:44:09;;;;;;;0.20;0.20;;;23.70;64.40;;;;;;5106713;28;27485;-58
2021/06/30 08:46:55;;;;;;;1.95;0.30;;;23.70;64.40;;;;;;5107295;28;27497;-58
2021/06/30 08:49:43;;;;;;;0.57;0.10;;;23.50;64.40;;;;;;5107214;28;27462;-58
2021/06/30 08:52:28;;;;;;;0.80;0.40;;;23.40;64.70;;;;;;5106923;28;27410;-58
2021/06/30 08:55:12;;;;;;;2.28;0.35;;;23.30;65.50;;;;;;5106204;28;27360;-58
2021/06/30 08:57:57;;;;;;;4.18;0.40;;;23.30;64.50;;;;;;5106898;28;27311;-58
2021/06/30 09:00:42;;;;;;;0.35;0.20;;;23.40;63.90;;;;;;5107134;28;27324;-58
2021/06/30 09:03:27;;;;;;;2.15;0.30;;;23.40;65.00;;;;;;5089756;28;27320;-58
2021/06/30 09:06:13;;;;;;;0.88;0.40;;;23.50;64.80;;;;;;5106748;28;27427;-58
2021/06/30 09:09:02;;;;;;;0.22;0.17;;;23.50;64.00;;;;;;5106704;28;27352;-58
2021/06/30 09:11:58;;;;;;;0.40;0.38;;;23.40;64.80;;;;;;5106062;28;27484;-60
2021/06/30 09:14:43;;;;;;;4.03;0.45;;;23.30;65.20;;;;;;5106570;28;27484;-59
2021/06/30 09:17:28;;;;;;;0.52;0.30;;;23.10;65.70;;;;;;5106568;28;27493;-59
2021/06/30 09:20:13;;;;;;;0.52;0.40;;;23.00;66.20;;;;;;5106844;28;27457;-59
2021/06/30 09:22:58;;;;;;;1.63;0.22;;;22.90;67.00;;;;;;5105975;27;27489;-58
2021/06/30 09:25:43;;;;;;;0.13;0.13;;;22.80;67.30;;;;;;5106664;28;27875;-58
2021/06/30 09:28:29;;;;;;;0.90;0.35;;;22.70;67.50;;;;;;5106366;28;27406;-58
2021/06/30 09:31:15;;;;;;;3.05;0.40;;;22.70;67.30;;;;;;5106364;28;27443;-58
2021/06/30 09:34:00;;;;;;;0.20;0.20;;;22.70;68.00;;;;;;5106634;28;27462;-58
2021/06/30 09:36:50;;;;;;;0.65;0.35;;;22.60;67.60;;;;;;5106556;28;27443;-59
2021/06/30 09:39:37;;;;;;;1.75;0.70;;;22.60;68.60;;;;;;5105886;28;27633;-60
2021/06/30 09:42:29;;;;;;;5.85;0.45;;;22.50;68.30;;;;;;5106254;28;27438;-59
2021/06/30 09:45:19;;;;;;;0.40;0.40;;;22.40;68.90;;;;;;5106184;28;27418;-59
2021/06/30 09:48:04;;;;;;;0.47;0.28;;;22.40;68.90;;;;;;5106042;28;27430;-58
2021/06/30 09:50:48;;;;;;;0.63;0.40;;;22.50;69.80;;;;;;5105023;28;27488;-58
2021/06/30 09:53:38;;;;;;;1.10;0.68;;;22.60;68.80;;;;;;5106096;28;27418;-58
2021/06/30 09:56:38;;;;;;;3.40;0.82;;;22.70;69.10;;;;;;5105554;28;27406;-58
2021/06/30 09:59:27;;;;;;;1.27;0.40;;;22.70;69.10;;;;;;5105871;28;28021;-58
2021/06/30 10:02:19;;;;;;;1.85;0.50;;;22.70;68.80;;;;;;5105620;28;27425;-59
2021/06/30 10:05:04;;;;;;;2.65;0.52;;;22.70;69.00;;;;;;5105658;28;27537;-59
2021/06/30 10:07:49;;;;;;;2.47;0.60;;;22.80;69.50;;;;;;5105750;28;27399;-58
2021/06/30 10:10:33;;;;;;;0.52;0.38;;;23.00;69.60;;;;;;5101472;28;27957;-58
2021/06/30 10:13:18;;;;;;;0.63;0.38;;;23.30;69.10;;;;;;5105215;28;27466;-59
2021/06/30 10:16:03;;;;;;;3.30;0.35;;;23.40;68.50;;;;;;5105239;28;27494;-58
2021/06/30 10:18:53;;;;;;;1.02;0.47;;;23.50;68.10;;;;;;5105143;28;27437;-58
2021/06/30 10:21:37;;;;;;;0.30;0.20;;;23.60;68.50;;;;;;5105801;28;27883;-58
2021/06/30 10:24:22;;;;;;;1.45;0.55;;;23.50;68.30;;;;;;5105501;28;27344;-59
2021/06/30 10:27:07;;;;;;;1.63;0.30;;;23.50;67.90;;;;;;5101573;28;27383;-58
2021/06/30 10:29:54;;;;;;;0.40;0.30;;;23.50;67.30;;;;;;5105642;28;27323;-58
2021/06/30 10:32:56;;;;;;;0.45;0.28;;;23.60;66.60;;;;;;5105096;28;27363;-58
2021/06/30 10:35:46;;;;;;;0.50;0.40;;;23.80;65.50;;;;;;5104012;28;27427;-58
2021/06/30 10:38:54;;;;;;;2.78;0.40;;;24.00;65.20;;;;;;5105619;28;27389;-58
2021/06/30 10:41:56;;;;;;;1.35;0.47;;;24.20;64.70;;;;;;5105472;28;27392;-58
2021/06/30 10:45:12;;;;;;;0.20;0.20;;;24.40;64.20;;;;;;5105437;28;27396;-58
2021/06/30 10:48:05;;;;;;;3.50;0.40;;;24.60;64.10;;;;;;5099419;28;27479;-58
2021/06/30 10:50:56;;;;;;;1.42;0.50;;;24.80;63.50;;;;;;5104921;28;27413;-58
2021/06/30 10:53:41;;;;;;;0.75;0.32;;;24.80;63.30;;;;;;5105041;28;27457;-58
2021/06/30 10:56:30;;;;;;;0.52;0.30;;;24.90;63.10;;;;;;5105256;28;27403;-58
2021/06/30 10:59:14;;;;;;;0.43;0.38;;;25.00;63.10;;;;;;5104663;28;27553;-58
2021/06/30 11:02:11;;;;;;;0.30;0.30;;;25.00;62.50;;;;;;5104964;28;27344;-58
2021/06/30 11:04:56;;;;;;;0.52;0.30;;;25.00;62.20;;;;;;5104922;28;27328;-58
2021/06/30 11:07:41;;;;;;;2.30;0.43;;;25.10;62.30;;;;;;5104067;28;27900;-58
2021/06/30 11:10:26;;;;;;;1.33;0.40;;;25.30;62.10;;;;;;5104909;28;27467;-58
2021/06/30 11:13:11;;;;;;;0.93;0.40;;;25.30;61.80;;;;;;5105168;28;27378;-58
2021/06/30 11:15:55;;;;;;;0.73;0.73;;;25.40;62.30;;;;;;5104015;28;27390;-59
2021/06/30 11:18:40;;;;;;;0.93;0.38;;;25.30;62.10;;;;;;5103920;28;27379;-58
2021/06/30 11:21:51;;;;;;;0.20;0.20;;;25.20;61.80;;;;;;5104951;28;27332;-59
2021/06/30 11:24:39;;;;;;;0.57;0.30;;;25.10;61.10;;;;;;5101866;28;27400;-59
2021/06/30 11:27:34;;;;;;;1.98;0.30;;;25.00;61.30;;;;;;5104293;28;27655;-59
2021/06/30 11:30:37;;;;;;;0.25;0.20;;;25.00;61.10;;;;;;5104643;28;27949;-59
2021/06/30 11:33:22;;;;;;;0.70;0.40;;;25.00;61.20;;;;;;5104788;28;27400;-59
2021/06/30 11:36:07;;;;;;;1.33;0.40;;;25.30;61.10;;;;;;5104806;28;27395;-58
2021/06/30 11:38:51;;;;;;;3.70;0.52;;;25.50;61.50;;;;;;5104452;28;27418;-58
2021/06/30 11:41:50;;;;;;;0.80;0.40;;;25.60;61.80;;;;;;5103636;28;27423;-58
2021/06/30 11:44:39;;;;;;;0.30;0.30;;;25.60;61.80;;;;;;5104359;28;27597;-59
2021/06/30 11:47:23;;;;;;;0.20;0.20;;;25.60;62.10;;;;;;5106752;27;27476;-59
2021/06/30 11:50:16;;;;;;;0.73;0.50;;;25.50;62.10;;;;;;5107105;28;27427;-59
2021/06/30 11:53:01;;;;;;;1.00;0.40;;;25.50;62.30;;;;;;5107897;28;27914;-59
2021/06/30 11:55:46;;;;;;;1.20;0.57;;;25.60;62.00;;;;;;5107577;28;27397;-58
2021/06/30 11:58:51;;;;;;;0.50;0.38;;;25.80;62.80;;;;;;5108179;28;27351;-59
2021/06/30 12:01:38;;;;;;;1.85;0.77;;;26.00;63.00;;;;;;5107810;28;27482;-58
2021/06/30 12:04:26;;;;;;;2.72;1.05;;;26.10;62.60;;;;;;5106201;28;27617;-59
2021/06/30 12:07:10;;;;;;;0.70;0.45;;;26.10;62.80;;;;;;5107665;28;27488;-58
2021/06/30 12:10:01;;;;;;;0.60;0.50;;;26.10;62.90;;;;;;5107576;28;27411;-59
2021/06/30 12:12:47;;;;;;;0.95;0.57;;;26.10;61.90;;;;;;5107888;28;27356;-58
2021/06/30 12:15:31;;;;;;;0.80;0.43;;;26.20;62.30;;;;;;5107815;28;27376;-58
2021/06/30 12:18:15;;;;;;;0.32;0.32;;;26.20;61.90;;;;;;5107029;28;27519;-59
2021/06/30 12:21:00;;;;;;;0.77;0.50;;;26.20;61.70;;;;;;5106565;28;27630;-58
2021/06/30 12:23:44;;;;;;;0.68;0.32;;;26.10;61.00;;;;;;5092176;28;27345;-59
2021/06/30 12:26:29;;;;;;;1.35;0.50;;;26.00;60.40;;;;;;5107656;28;27333;-58
2021/06/30 12:29:16;;;;;;;2.28;0.40;;;25.90;60.80;;;;;;5106896;28;27473;-58
2021/06/30 12:32:03;;;;;;;1.23;0.30;;;25.90;61.40;;;;;;5107636;28;27382;-58
2021/06/30 12:34:48;;;;;;;0.47;0.30;;;26.00;61.80;;;;;;5106524;28;27493;-58
2021/06/30 12:37:33;;;;;;;1.23;0.35;;;26.10;61.30;;;;;;5106475;28;27480;-59
2021/06/30 12:40:18;;;;;;;0.80;0.38;;;26.20;60.50;;;;;;5107448;28;27402;-59
2021/06/30 12:43:16;;;;;;;0.30;0.30;;;26.30;60.70;;;;;;5107239;28;27411;-59
2021/06/30 12:46:02;;;;;;;0.30;0.30;;;26.30;60.20;;;;;;5107056;28;27526;-58
2021/06/30 12:48:46;;;;;;;0.30;0.30;;;26.20;59.80;;;;;;5106626;28;27876;-59
2021/06/30 12:51:31;;;;;;;0.57;0.40;;;26.20;59.80;;;;;;5106945;28;27459;-59
2021/06/30 12:54:16;;;;;;;0.30;0.30;;;26.10;60.40;;;;;;5107028;28;27453;-59
2021/06/30 12:57:04;;;;;;;0.35;0.35;;;26.10;60.00;;;;;;5106648;27;27415;-58
2021/06/30 13:00:07;;;;;;;0.25;0.20;;;26.00;59.70;;;;;;5106878;28;27410;-58
2021/06/30 13:03:11;;;;;;;0.32;0.30;;;25.90;59.40;;;;;;5106294;28;27398;-58
2021/06/30 13:06:16;;;;;;;2.65;0.35;;;25.80;59.30;;;;;;5106788;28;27505;-59
2021/06/30 13:09:05;;;;;;;2.20;0.22;;;25.80;58.80;;;;;;5106742;28;27400;-58
2021/06/30 13:11:56;;;;;;;1.60;0.35;;;25.70;58.40;;;;;;5106689;28;27397;-58
2021/06/30 13:14:41;;;;;;;0.28;0.28;;;25.70;57.90;;;;;;5106911;28;27462;-58
2021/06/30 13:17:26;;;;;;;1.75;0.43;;;25.60;57.70;;;;;;5106286;28;27490;-58
2021/06/30 13:20:14;;;;;;;0.77;0.30;;;25.50;57.50;;;;;;5106529;28;27407;-58
2021/06/30 13:22:58;;;;;;;0.73;0.38;;;25.50;57.40;;;;;;5106460;28;27382;-58
2021/06/30 13:25:59;;;;;;;4.38;0.40;;;25.40;57.60;;;;;;5106450;28;27362;-58
2021/06/30 13:34:35;;;;;;;0.32;0.30;;;25.30;57.70;;;;;;5106334;28;27892;-58
2021/06/30 13:37:20;;;;;;;0.95;0.50;;;25.30;57.70;;;;;;5106554;28;27404;-58
2021/06/30 13:40:05;;;;;;;0.32;0.30;;;25.20;57.60;;;;;;5105870;28;27415;-59
2021/06/30 13:42:51;;;;;;;0.60;0.28;;;25.20;57.50;;;;;;5106472;28;27395;-58
2021/06/30 13:45:43;;;;;;;1.73;0.30;;;25.10;58.00;;;;;;5105645;28;27667;-58
2021/06/30 13:48:28;;;;;;;0.93;0.50;;;25.10;58.30;;;;;;5106068;28;27414;-58
2021/06/30 13:51:13;;;;;;;0.20;0.20;;;25.00;58.10;;;;;;5102558;28;27506;-59
2021/06/30 13:53:58;;;;;;;0.57;0.40;;;24.90;58.70;;;;;;5105282;28;27393;-58
2021/06/30 13:56:43;;;;;;;2.00;0.47;;;24.90;59.30;;;;;;5102032;28;27495;-58
2021/06/30 13:59:27;;;;;;;1.50;0.40;;;24.80;59.30;;;;;;5105411;28;27427;-59
2021/06/30 14:02:12;;;;;;;2.25;0.93;;;24.80;58.70;;;;;;5105892;28;27423;-58
2021/06/30 14:04:56;;;;;;;1.08;0.50;;;24.80;58.90;;;;;;5106159;28;27328;-58
2021/06/30 14:07:41;;;;;;;1.17;0.30;;;24.70;59.20;;;;;;5106172;28;27849;-58
2021/06/30 14:10:27;;;;;;;0.38;0.30;;;24.60;59.10;;;;;;5104576;27;27312;-59
2021/06/30 14:13:12;;;;;;;0.75;0.32;;;24.60;58.70;;;;;;5105361;28;27399;-58
2021/06/30 14:15:57;;;;;;;0.60;0.30;;;24.70;58.60;;;;;;5102624;28;27621;-58
2021/06/30 14:18:42;;;;;;;2.15;0.40;;;24.70;58.50;;;;;;5106091;28;27651;-58
2021/06/30 14:21:28;;;;;;;1.17;0.30;;;24.70;58.40;;;;;;5106043;28;27505;-58
2021/06/30 14:24:13;;;;;;;2.63;0.47;;;24.80;58.40;;;;;;5105880;28;27484;-58
2021/06/30 14:26:58;;;;;;;0.63;0.55;;;24.80;58.80;;;;;;5105822;28;27406;-59
2021/06/30 14:29:42;;;;;;;0.93;0.52;;;24.70;59.00;;;;;;5105343;28;27502;-58
2021/06/30 14:32:27;;;;;;;1.63;0.47;;;24.70;59.50;;;;;;5105426;28;27485;-59